createdAt,value
2023-05-24T00:00:12.733Z,47.03
2023-05-24T00:02:43.031Z,39.93
2023-05-24T00:05:10.948Z,47.27
2023-05-24T00:07:38.355Z,44.70
2023-05-24T00:10:06.310Z,39.70
2023-05-24T00:12:33.233Z,37.47
2023-05-24T00:15:00.181Z,41.03
2023-05-24T00:17:27.621Z,46.10
2023-05-24T00:19:54.462Z,29.83
2023-05-24T00:22:21.718Z,46.57
2023-05-24T00:24:48.791Z,41.40
2023-05-24T00:27:16.160Z,36.17
2023-05-24T00:29:43.100Z,39.03
2023-05-24T00:32:10.031Z,36.83
2023-05-24T00:34:36.862Z,49.97
2023-05-24T00:37:07.691Z,45.57
2023-05-24T00:39:34.393Z,34.57
2023-05-24T00:42:01.123Z,45.37
2023-05-24T00:44:31.355Z,36.07
2023-05-24T00:46:58.578Z,40.97
2023-05-24T00:49:25.630Z,42.27
2023-05-24T00:51:54.086Z,43.43
2023-05-24T00:54:21.116Z,32.97
2023-05-24T00:56:48.404Z,51.80
2023-05-24T00:59:15.282Z,47.47
2023-05-24T01:01:42.904Z,43.67
2023-05-24T01:04:09.724Z,49.00
2023-05-24T01:06:47.822Z,38.87
2023-05-24T01:09:25.983Z,44.93
2023-05-24T01:12:12.473Z,38.37
2023-05-24T01:14:57.959Z,43.30
2023-05-24T01:17:37.538Z,44.77
2023-05-24T01:20:11.123Z,43.47
2023-05-24T01:23:28.952Z,42.07
2023-05-24T01:26:13.803Z,45.27
2023-05-24T01:28:43.277Z,39.83
2023-05-24T01:31:12.736Z,52.47
2023-05-24T01:33:42.862Z,36.67
2023-05-24T01:36:09.819Z,44.17
2023-05-24T01:38:37.929Z,43.93
2023-05-24T01:41:13.119Z,46.60
2023-05-24T01:43:48.731Z,41.87
2023-05-24T01:46:38.044Z,49.40
2023-05-24T01:49:20.619Z,51.47
2023-05-24T01:52:08.570Z,43.03
2023-05-24T01:54:38.985Z,38.90
2023-05-24T01:57:08.999Z,40.03
2023-05-24T01:59:37.983Z,41.00
2023-05-24T02:02:05.039Z,38.47
2023-05-24T02:04:32.037Z,35.80
2023-05-24T02:06:58.730Z,47.80
2023-05-24T02:09:25.429Z,39.40
2023-05-24T02:11:52.175Z,39.07
2023-05-24T02:14:19.835Z,41.93
2023-05-24T02:16:47.332Z,43.70
2023-05-24T02:19:14.646Z,36.07
2023-05-24T02:21:41.468Z,46.60
2023-05-24T02:24:11.241Z,40.17
2023-05-24T02:26:38.743Z,40.93
2023-05-24T02:29:08.043Z,45.50
2023-05-24T02:31:34.796Z,36.53
2023-05-24T02:34:01.666Z,38.30
2023-05-24T02:36:28.459Z,42.23
2023-05-24T02:38:55.132Z,46.70
2023-05-24T02:41:22.201Z,44.73
2023-05-24T02:43:48.964Z,45.27
2023-05-24T02:46:15.959Z,41.60
2023-05-24T02:48:42.734Z,33.77
2023-05-24T02:51:09.481Z,53.90
2023-05-24T02:53:36.278Z,45.00
2023-05-24T02:56:02.962Z,37.17
2023-05-24T02:58:30.465Z,55.13
2023-05-24T03:00:57.174Z,52.53
2023-05-24T03:03:24.580Z,47.60
2023-05-24T03:05:51.374Z,40.30
2023-05-24T03:08:18.060Z,44.13
2023-05-24T03:10:47.593Z,41.17
2023-05-24T03:13:14.430Z,38.90
2023-05-24T03:15:41.196Z,44.80
2023-05-24T03:18:07.967Z,44.23
2023-05-24T03:20:34.777Z,42.67
2023-05-24T03:23:01.709Z,49.97
2023-05-24T03:25:28.564Z,39.63
2023-05-24T03:27:55.462Z,44.47
2023-05-24T03:30:22.149Z,41.23
2023-05-24T03:32:48.969Z,44.77
2023-05-24T03:35:15.675Z,47.63
2023-05-24T03:37:42.449Z,36.43
2023-05-24T03:40:09.533Z,44.93
2023-05-24T03:42:36.509Z,46.67
2023-05-24T03:45:03.904Z,42.47
2023-05-24T03:47:33.255Z,48.40
2023-05-24T03:50:00.016Z,55.27
2023-05-24T03:52:26.995Z,58.53
2023-05-24T03:54:53.827Z,40.50
2023-05-24T03:57:20.671Z,42.43
2023-05-24T03:59:47.370Z,44.87
2023-05-24T04:02:14.614Z,43.67
2023-05-24T04:04:41.575Z,59.63
2023-05-24T04:07:11.939Z,42.47
2023-05-24T04:09:38.683Z,44.43
2023-05-24T04:12:06.817Z,42.00
2023-05-24T04:14:33.543Z,38.93
2023-05-24T04:17:02.402Z,44.53
2023-05-24T04:19:29.640Z,49.20
2023-05-24T04:21:57.672Z,43.33
2023-05-24T04:24:24.344Z,39.63
2023-05-24T04:26:51.697Z,41.37
2023-05-24T04:29:18.926Z,45.97
2023-05-24T04:31:45.835Z,60.23
2023-05-24T04:34:14.323Z,53.40
2023-05-24T04:36:41.444Z,44.27
2023-05-24T04:39:08.204Z,38.03
2023-05-24T04:41:38.688Z,44.03
2023-05-24T04:44:05.586Z,40.77
2023-05-24T04:46:36.100Z,43.60
2023-05-24T04:49:03.075Z,50.63
2023-05-24T04:51:29.820Z,40.10
2023-05-24T04:53:56.601Z,40.47
2023-05-24T04:56:23.302Z,47.47
2023-05-24T04:58:50.268Z,58.57
2023-05-24T05:01:16.991Z,43.23
2023-05-24T05:03:46.062Z,68.83
2023-05-24T05:06:12.879Z,57.77
2023-05-24T05:08:39.640Z,55.67
2023-05-24T05:11:06.449Z,39.73
2023-05-24T05:13:33.251Z,57.30
2023-05-24T05:15:59.959Z,57.40
2023-05-24T05:18:26.667Z,41.03
2023-05-24T05:20:53.415Z,40.90
2023-05-24T05:23:20.127Z,47.17
2023-05-24T05:25:46.812Z,37.60
2023-05-24T05:28:13.744Z,44.70
2023-05-24T05:30:40.634Z,37.40
2023-05-24T05:33:07.594Z,42.67
2023-05-24T05:35:34.406Z,32.40
2023-05-24T05:38:01.506Z,44.27
2023-05-24T05:40:28.225Z,49.73
2023-05-24T05:42:54.955Z,35.90
2023-05-24T05:45:21.744Z,43.57
2023-05-24T05:47:48.548Z,40.17
2023-05-24T05:50:15.470Z,40.63
2023-05-24T05:52:42.222Z,43.50
2023-05-24T05:55:09.371Z,44.63
2023-05-24T05:57:36.091Z,52.77
2023-05-24T06:00:03.759Z,52.57
2023-05-24T06:02:33.427Z,56.67
2023-05-24T06:05:00.462Z,54.97
2023-05-24T06:07:27.260Z,56.83
2023-05-24T06:09:57.309Z,48.87
2023-05-24T06:12:24.008Z,54.07
2023-05-24T06:14:50.769Z,60.13
2023-05-24T06:17:18.579Z,53.73
2023-05-24T06:19:45.732Z,52.10
2023-05-24T06:22:12.727Z,47.30
2023-05-24T06:24:40.022Z,54.53
2023-05-24T06:27:06.770Z,54.40
2023-05-24T06:29:33.512Z,58.50
2023-05-24T06:32:00.329Z,55.40
2023-05-24T06:34:27.437Z,56.07
2023-05-24T06:36:54.131Z,47.43
2023-05-24T06:39:21.004Z,45.60
2023-05-24T06:41:48.235Z,53.80
2023-05-24T06:44:16.392Z,52.00
2023-05-24T06:46:43.270Z,54.40
2023-05-24T06:49:10.130Z,47.27
2023-05-24T06:51:38.111Z,57.47
2023-05-24T06:54:04.895Z,49.23
2023-05-24T06:56:35.661Z,36.00
2023-05-24T06:59:02.544Z,50.50
2023-05-24T07:01:29.700Z,41.80
2023-05-24T07:03:56.523Z,51.33
2023-05-24T07:06:23.288Z,46.07
2023-05-24T07:08:50.104Z,47.07
2023-05-24T07:11:16.953Z,46.07
2023-05-24T07:13:43.729Z,52.30
2023-05-24T07:16:11.733Z,38.90
2023-05-24T07:18:38.867Z,45.60
2023-05-24T07:21:05.568Z,44.87
2023-05-24T07:23:32.507Z,46.00
2023-05-24T07:26:01.602Z,40.53
2023-05-24T07:28:28.358Z,52.37
2023-05-24T07:30:55.175Z,53.70
2023-05-24T07:33:22.062Z,58.50
2023-05-24T07:35:51.717Z,44.03
2023-05-24T07:38:18.983Z,49.83
2023-05-24T07:40:45.812Z,52.80
2023-05-24T07:43:12.777Z,36.07
2023-05-24T07:45:39.575Z,40.20
2023-05-24T07:48:06.747Z,44.50
2023-05-24T07:50:33.589Z,36.10
2023-05-24T07:53:00.441Z,39.13
2023-05-24T07:55:28.109Z,34.67
2023-05-24T07:57:54.948Z,33.43
2023-05-24T08:00:21.888Z,35.43
2023-05-24T08:02:48.868Z,32.23
2023-05-24T08:05:16.956Z,40.47
2023-05-24T08:07:43.897Z,30.63
2023-05-24T08:10:12.750Z,34.57
2023-05-24T08:12:42.509Z,31.63
2023-05-24T08:15:09.932Z,37.37
2023-05-24T08:17:38.880Z,39.03
2023-05-24T08:20:09.849Z,26.03
2023-05-24T08:22:37.728Z,37.07
2023-05-24T08:25:05.052Z,30.77
2023-05-24T08:27:31.914Z,25.13
2023-05-24T08:29:59.037Z,29.47
2023-05-24T08:32:25.923Z,30.00
2023-05-24T08:34:58.140Z,25.43
2023-05-24T08:37:35.154Z,31.73
2023-05-24T08:40:01.900Z,26.23
2023-05-24T08:42:29.315Z,32.77
2023-05-24T08:45:08.427Z,29.23
2023-05-24T08:47:36.903Z,34.53
2023-05-24T08:50:05.380Z,32.17
2023-05-24T08:52:32.946Z,32.63
2023-05-24T08:55:00.171Z,23.23
2023-05-24T08:57:27.790Z,27.20
2023-05-24T08:59:56.213Z,27.80
2023-05-24T09:02:23.743Z,24.57
2023-05-24T09:04:53.108Z,27.87
2023-05-24T09:07:24.698Z,31.50
2023-05-24T09:10:01.328Z,24.23
2023-05-24T09:12:37.328Z,28.47
2023-05-24T09:15:06.945Z,34.93
2023-05-24T09:17:35.636Z,29.30
2023-05-24T09:20:06.939Z,26.67
2023-05-24T09:22:35.776Z,25.63
2023-05-24T09:25:05.855Z,28.90
2023-05-24T09:27:35.647Z,26.57
2023-05-24T09:30:05.424Z,21.17
2023-05-24T09:32:33.230Z,35.70
2023-05-24T09:35:00.154Z,19.17
2023-05-24T09:37:32.127Z,26.10
2023-05-24T09:40:00.071Z,21.10
2023-05-24T09:42:31.176Z,16.63
2023-05-24T09:45:06.836Z,24.60
2023-05-24T09:47:35.104Z,22.17
2023-05-24T09:50:03.466Z,23.90
2023-05-24T09:52:34.054Z,19.73
2023-05-24T09:55:15.614Z,24.00
2023-05-24T09:57:50.839Z,18.03
2023-05-24T10:00:27.188Z,26.43
2023-05-24T10:03:06.796Z,21.33
2023-05-24T10:05:35.122Z,22.27
2023-05-24T10:08:05.033Z,16.17
2023-05-24T10:10:33.446Z,15.97
2023-05-24T10:13:01.648Z,18.37
2023-05-24T10:15:29.711Z,12.77
2023-05-24T10:17:58.112Z,15.23
2023-05-24T10:20:25.312Z,16.47
2023-05-24T10:22:59.370Z,13.83
2023-05-24T10:25:29.992Z,17.67
2023-05-24T10:28:10.356Z,16.83
2023-05-24T10:31:26.917Z,18.03
2023-05-24T10:36:47.856Z,15.83
2023-05-24T10:39:21.512Z,11.00
2023-05-24T10:41:48.489Z,13.83
2023-05-24T10:41:49.918Z,9.93
2023-05-24T10:44:19.336Z,11.83
2023-05-24T10:47:10.555Z,11.93
2023-05-24T10:49:38.995Z,11.17
2023-05-24T10:52:10.286Z,12.73
2023-05-24T10:54:39.874Z,10.93
2023-05-24T10:57:08.781Z,9.60
2023-05-24T10:59:38.849Z,8.73
2023-05-24T11:02:14.150Z,9.90
2023-05-24T11:04:43.556Z,10.80
2023-05-24T11:07:11.604Z,9.50
2023-05-24T11:09:52.817Z,11.57
2023-05-24T11:12:23.794Z,10.23
2023-05-24T11:14:53.847Z,12.80
2023-05-24T11:17:23.207Z,10.67
2023-05-24T11:19:52.986Z,11.57
2023-05-24T11:22:22.452Z,10.00
2023-05-24T11:24:49.285Z,15.93
2023-05-24T11:27:16.476Z,10.63
2023-05-24T11:29:45.232Z,9.60
2023-05-24T11:32:20.566Z,10.73
2023-05-24T11:34:48.260Z,8.57
2023-05-24T11:37:18.060Z,6.65
2023-05-24T11:39:51.505Z,15.73
2023-05-24T11:42:18.418Z,8.23
2023-05-24T11:44:48.618Z,10.15
2023-05-24T11:47:15.363Z,7.60
2023-05-24T11:49:42.051Z,8.93
2023-05-24T11:52:08.976Z,11.48
2023-05-24T11:54:37.374Z,7.82
2023-05-24T11:57:05.559Z,6.43
2023-05-24T11:59:32.357Z,5.93
2023-05-24T12:02:00.242Z,8.88
2023-05-24T12:04:29.232Z,8.55
2023-05-24T12:06:56.482Z,8.65
2023-05-24T12:09:23.759Z,8.10
2023-05-24T12:11:51.656Z,5.50
2023-05-24T12:14:19.481Z,9.52
2023-05-24T12:16:47.226Z,7.70
2023-05-24T12:19:33.301Z,7.95
2023-05-24T12:22:05.085Z,4.47
2023-05-24T12:24:32.850Z,10.10
2023-05-24T12:27:02.191Z,8.73
2023-05-24T12:29:41.744Z,6.30
2023-05-24T12:32:15.291Z,7.15
2023-05-24T12:34:43.816Z,5.10
2023-05-24T12:37:16.042Z,7.07
2023-05-24T12:39:44.492Z,7.72
2023-05-24T12:42:13.440Z,8.23
2023-05-24T12:44:40.775Z,10.45
2023-05-24T12:47:08.993Z,8.77
2023-05-24T12:49:36.362Z,8.73
2023-05-24T12:52:03.092Z,7.82
2023-05-24T12:54:30.333Z,7.32
2023-05-24T12:56:59.991Z,7.78
2023-05-24T12:59:28.778Z,7.70
2023-05-24T13:01:56.343Z,3.95
2023-05-24T13:04:24.439Z,6.75
2023-05-24T13:06:51.681Z,8.93
2023-05-24T13:09:21.431Z,8.30
2023-05-24T13:11:48.272Z,5.13
2023-05-24T13:14:16.743Z,9.52
2023-05-24T13:16:44.378Z,5.15
2023-05-24T13:19:11.940Z,5.63
2023-05-24T13:21:39.043Z,6.50
2023-05-24T13:24:06.656Z,6.25
2023-05-24T13:26:38.201Z,8.52
2023-05-24T13:29:32.210Z,6.38
2023-05-24T13:31:55.476Z,6.57
2023-05-24T13:34:25.705Z,6.18
2023-05-24T13:36:55.565Z,7.97
2023-05-24T13:39:22.391Z,10.48
2023-05-24T13:41:51.444Z,6.30
2023-05-24T13:44:18.438Z,10.88
2023-05-24T13:46:46.011Z,9.20
2023-05-24T13:49:13.021Z,11.20
2023-05-24T13:51:40.331Z,6.32
2023-05-24T13:54:07.963Z,8.52
2023-05-24T13:56:35.826Z,7.97
2023-05-24T13:59:04.427Z,10.07
2023-05-24T14:01:31.988Z,9.45
2023-05-24T14:03:59.988Z,11.32
2023-05-24T14:06:26.697Z,10.13
2023-05-24T14:08:53.906Z,8.35
2023-05-24T14:11:22.359Z,7.22
2023-05-24T14:16:18.940Z,10.63
2023-05-24T14:18:46.005Z,6.63
2023-05-24T14:21:12.763Z,5.85
2023-05-24T14:23:39.630Z,7.55
2023-05-24T14:26:06.760Z,7.93
2023-05-24T14:28:33.515Z,9.45
2023-05-24T14:31:00.252Z,8.65
2023-05-24T14:33:27.029Z,6.40
2023-05-24T14:35:55.356Z,7.65
2023-05-24T14:38:23.933Z,4.47
2023-05-24T14:40:51.258Z,6.15
2023-05-24T14:43:18.366Z,8.43
2023-05-24T14:45:45.394Z,7.07
2023-05-24T14:48:12.828Z,7.63
2023-05-24T14:50:41.069Z,5.35
2023-05-24T14:53:14.397Z,11.73
2023-05-24T14:55:42.824Z,10.60
2023-05-24T14:58:13.843Z,9.70
2023-05-24T15:00:42.026Z,7.63
2023-05-24T15:03:13.027Z,8.60
2023-05-24T15:05:41.386Z,7.75
2023-05-24T15:08:08.872Z,5.75
2023-05-24T15:10:35.600Z,7.93
2023-05-24T15:13:03.880Z,5.95
2023-05-24T15:15:31.356Z,6.97
2023-05-24T15:17:59.897Z,9.48
2023-05-24T15:20:26.996Z,4.63
2023-05-24T15:22:53.984Z,6.28
2023-05-24T15:25:21.115Z,5.90
2023-05-24T15:27:48.207Z,7.45
2023-05-24T15:30:17.275Z,7.22
2023-05-24T15:32:45.770Z,6.22
2023-05-24T15:35:12.873Z,10.27
2023-05-24T15:37:40.486Z,7.97
2023-05-24T15:40:10.283Z,7.15
2023-05-24T15:42:37.033Z,7.93
2023-05-24T15:45:04.019Z,5.85
2023-05-24T15:47:36.284Z,8.18
2023-05-24T15:50:04.118Z,4.38
2023-05-24T15:52:33.671Z,8.85
2023-05-24T15:55:00.566Z,7.85
2023-05-24T15:57:27.452Z,8.43
2023-05-24T15:59:54.179Z,5.63
2023-05-24T16:02:21.556Z,6.65
2023-05-24T16:04:48.475Z,8.43
2023-05-24T16:07:15.576Z,5.38
2023-05-24T16:09:42.362Z,5.55
2023-05-24T16:12:10.123Z,5.93
2023-05-24T16:14:36.889Z,7.55
2023-05-24T16:17:05.540Z,4.60
2023-05-24T16:19:32.520Z,8.70
2023-05-24T16:21:59.246Z,5.38
2023-05-24T16:24:27.086Z,8.25
2023-05-24T16:26:53.895Z,9.75
2023-05-24T16:29:21.354Z,7.93
2023-05-24T16:31:48.355Z,12.35
2023-05-24T16:34:16.431Z,10.38
2023-05-24T16:36:45.781Z,8.70
2023-05-24T16:39:12.529Z,6.22
2023-05-24T16:41:41.704Z,12.07
2023-05-24T16:44:08.578Z,10.65
2023-05-24T16:46:36.554Z,12.73
2023-05-24T16:49:03.937Z,10.32
2023-05-24T16:51:30.653Z,12.52
2023-05-24T16:53:57.472Z,6.35
2023-05-24T16:56:24.155Z,6.53
2023-05-24T16:59:01.550Z,8.50
2023-05-24T17:01:28.586Z,11.75
2023-05-24T17:03:55.429Z,7.95
2023-05-24T17:06:22.411Z,13.07
2023-05-24T17:08:49.146Z,5.50
2023-05-24T17:11:17.078Z,9.70
2023-05-24T17:13:43.886Z,14.65
2023-05-24T17:16:11.789Z,15.30
2023-05-24T17:18:38.709Z,17.48
2023-05-24T17:21:06.774Z,19.25
2023-05-24T17:23:36.575Z,15.32
2023-05-24T17:26:04.038Z,22.02
2023-05-24T17:28:31.109Z,20.23
2023-05-24T17:31:00.799Z,19.63
2023-05-24T17:33:29.588Z,21.30
2023-05-24T17:35:57.137Z,21.53
2023-05-24T17:38:28.603Z,20.60
2023-05-24T17:40:59.708Z,18.00
2023-05-24T17:43:32.740Z,22.30
2023-05-24T17:46:06.954Z,18.20
2023-05-24T17:48:36.140Z,25.47
2023-05-24T17:51:05.838Z,20.40
2023-05-24T17:53:34.945Z,23.93
2023-05-24T17:56:02.808Z,20.50
2023-05-24T17:58:37.223Z,21.20
2023-05-24T18:01:06.104Z,17.47
2023-05-24T18:03:37.704Z,21.13
2023-05-24T18:06:07.049Z,17.10
2023-05-24T18:08:37.164Z,15.27
2023-05-24T18:11:08.697Z,13.97
2023-05-24T18:13:40.505Z,17.43
2023-05-24T18:16:09.375Z,20.70
2023-05-24T18:18:37.748Z,20.23
2023-05-24T18:21:05.422Z,19.07
2023-05-24T18:23:37.253Z,20.07
2023-05-24T18:26:08.167Z,13.93
2023-05-24T18:28:37.656Z,21.37
2023-05-24T18:31:08.300Z,17.67
2023-05-24T18:33:35.198Z,16.70
2023-05-24T18:36:04.517Z,14.03
2023-05-24T18:38:34.497Z,19.37
2023-05-24T18:41:03.505Z,26.70
2023-05-24T18:43:32.362Z,19.10
2023-05-24T18:45:59.081Z,15.70
2023-05-24T18:48:26.011Z,15.03
2023-05-24T18:50:53.477Z,16.20
2023-05-24T18:53:20.310Z,14.00
2023-05-24T18:55:49.795Z,20.43
2023-05-24T18:58:16.503Z,18.23
2023-05-24T19:00:43.408Z,15.27
2023-05-24T19:03:12.144Z,15.73
2023-05-24T19:05:42.590Z,13.20
2023-05-24T19:08:10.651Z,19.30
2023-05-24T19:10:37.401Z,17.30
2023-05-24T19:13:06.173Z,17.53
2023-05-24T19:15:35.521Z,17.17
2023-05-24T19:18:02.890Z,18.47
2023-05-24T19:20:29.739Z,16.33
2023-05-24T19:22:56.644Z,15.10
2023-05-24T19:25:23.564Z,17.87
2023-05-24T19:27:59.246Z,16.37
2023-05-24T19:30:27.468Z,16.63
2023-05-24T19:32:54.453Z,13.93
2023-05-24T19:35:21.296Z,18.40
2023-05-24T19:37:48.031Z,22.00
2023-05-24T19:40:14.912Z,22.83
2023-05-24T19:42:41.670Z,21.70
2023-05-24T19:45:09.606Z,13.87
2023-05-24T19:47:36.553Z,13.60
2023-05-24T19:50:03.652Z,15.63
2023-05-24T19:52:30.376Z,20.30
2023-05-24T19:54:57.190Z,20.73
2023-05-24T19:57:24.913Z,26.43
2023-05-24T19:59:51.921Z,14.90
2023-05-24T20:02:21.405Z,20.20
2023-05-24T20:04:49.078Z,25.23
2023-05-24T20:07:15.901Z,19.60
2023-05-24T20:09:45.532Z,20.60
2023-05-24T20:12:12.408Z,21.27
2023-05-24T20:14:39.163Z,20.50
2023-05-24T20:17:05.969Z,17.40
2023-05-24T20:19:32.741Z,19.67
2023-05-24T20:21:59.474Z,21.10
2023-05-24T20:24:26.182Z,20.60
2023-05-24T20:26:55.802Z,19.27
2023-05-24T20:29:22.487Z,18.27
2023-05-24T20:31:49.275Z,25.37
2023-05-24T20:34:16.031Z,21.57
2023-05-24T20:36:43.875Z,19.23
2023-05-24T20:39:10.812Z,22.13
2023-05-24T20:41:37.539Z,19.57
2023-05-24T20:44:04.279Z,31.27
2023-05-24T20:46:33.896Z,20.83
2023-05-24T20:49:01.061Z,22.53
2023-05-24T20:51:27.769Z,20.20
2023-05-24T20:53:55.973Z,17.13
2023-05-24T20:56:23.208Z,21.17
2023-05-24T20:58:54.373Z,25.47
2023-05-24T21:01:21.408Z,25.33
2023-05-24T21:03:48.361Z,18.37
2023-05-24T21:06:15.265Z,25.00
2023-05-24T21:08:42.950Z,20.50
2023-05-24T21:11:09.713Z,20.40
2023-05-24T21:13:36.487Z,26.37
2023-05-24T21:16:03.282Z,25.63
2023-05-24T21:18:33.391Z,23.97
2023-05-24T21:21:00.346Z,23.50
2023-05-24T21:23:27.062Z,19.00
2023-05-24T21:25:53.792Z,23.70
2023-05-24T21:28:20.654Z,29.60
2023-05-24T21:30:47.434Z,22.17
2023-05-24T21:33:14.194Z,25.27
2023-05-24T21:35:41.088Z,19.37
2023-05-24T21:38:07.890Z,21.63
2023-05-24T21:40:34.671Z,23.20
2023-05-24T21:43:01.362Z,25.53
2023-05-24T21:45:28.168Z,20.30
2023-05-24T21:47:54.910Z,20.33
2023-05-24T21:50:21.716Z,23.63
2023-05-24T21:52:50.415Z,24.95
2023-05-24T21:55:17.316Z,21.83
2023-05-24T21:57:44.129Z,24.47
2023-05-24T22:00:14.549Z,20.83
2023-05-24T22:02:43.253Z,29.57
2023-05-24T22:05:10.079Z,28.33
2023-05-24T22:07:37.555Z,20.10
2023-05-24T22:10:05.708Z,17.10
2023-05-24T22:12:32.677Z,24.50
2023-05-24T22:15:01.416Z,20.13
2023-05-24T22:17:33.415Z,26.13
2023-05-24T22:20:04.900Z,23.67
2023-05-24T22:22:31.982Z,22.07
2023-05-24T22:25:02.200Z,19.10
2023-05-24T22:27:29.589Z,19.27
2023-05-24T22:29:56.377Z,22.73
2023-05-24T22:32:23.229Z,19.77
2023-05-24T22:34:50.027Z,21.93
2023-05-24T22:37:17.721Z,20.60
2023-05-24T22:39:45.444Z,20.90
2023-05-24T22:42:13.493Z,18.57
2023-05-24T22:44:40.155Z,19.10
2023-05-24T22:47:12.015Z,19.60
2023-05-24T22:49:38.699Z,23.63
2023-05-24T22:52:06.993Z,17.43
2023-05-24T22:54:33.672Z,20.23
2023-05-24T22:57:00.955Z,24.90
2023-05-24T22:59:28.041Z,18.77
2023-05-24T23:01:55.690Z,18.27
2023-05-24T23:04:22.507Z,26.37
2023-05-24T23:06:53.166Z,21.63
2023-05-24T23:09:33.847Z,17.27
2023-05-24T23:12:08.013Z,22.17
2023-05-24T23:14:39.854Z,19.40
2023-05-24T23:17:15.815Z,21.00
2023-05-24T23:19:43.278Z,19.57
2023-05-24T23:22:13.998Z,23.30
2023-05-24T23:24:44.455Z,22.10
2023-05-24T23:27:11.300Z,22.77
2023-05-24T23:29:40.818Z,18.63
2023-05-24T23:32:10.164Z,29.23
2023-05-24T23:34:37.243Z,19.00
2023-05-24T23:37:05.111Z,13.03
2023-05-24T23:39:31.995Z,23.40
2023-05-24T23:41:58.753Z,24.00
2023-05-24T23:44:25.843Z,20.00
2023-05-24T23:46:53.655Z,23.53
2023-05-24T23:49:20.553Z,21.67
2023-05-24T23:51:47.470Z,27.03
2023-05-24T23:54:19.032Z,18.50
2023-05-24T23:56:46.116Z,10.93
2023-05-24T23:59:15.252Z,18.93
